Terminal Aerodrome Forecast
Issued by NWS Houston/Galveston, TX

Home | Current Version | Previous Version | Text Only | Print | Product List | Glossary On
Versions: 1 2 3 4 5 6 7 8 9 10 11 12 13 14 15
000
FTUS44 KHGX 202325
TAFCLL
TAF
KCLL 202325Z 2100/2124 15008KT P6SM BKN050
     FM210600 17006KT P6SM SCT012 BKN045
     FM210900 18004KT 5SM BR BKN007 OVC035
     FM211500 19011KT P6SM SCT007 BKN015
     FM211800 19011G21KT P6SM SCT035=

USA.gov is the U.S. government's official web portal to all federal, state and local government web resources and services.